Curitiba, Brazil

2:02 AM BRST on December 04, 2016 (GMT -0200)
Afonso Pena | | Change Station

Elev 2979 ft 25.53 °S, 49.18 °W | Updated 1 hour ago

Mostly Cloudy
Mostly Cloudy
66 °F
Feels Like 66 °F
N
13
Wind Variable Wind from NW

Today
High -- | Low -- °F
--% Chance of Precip.
Yesterday
High -- | Low -- °F
Precip. -- in
Pressure 29.74 in
Visibility 6.2 miles
Clouds Mostly Cloudy 1200 ft
Mostly Cloudy 2000 ft
Dew Point 63 °F
Humidity 88%
Rainfall 0.00 in
Snow Depth Not available.
6:17 AM 7:56 PM
Waxing Crescent, 19% visible
METAR SBCT 040300Z 31011KT 9999 BKN012 BKN020 19/17 Q1007
Pressure 29.74 in
Visibility 6.2 miles
Clouds Mostly Cloudy 1200 ft
Mostly Cloudy 2000 ft
Dew Point 63 °F
Humidity 88%
Rainfall 0.00 in
Snow Depth Not available.
6:17 AM 7:56 PM
Waxing Crescent, 19% visible
METAR SBCT 040300Z 31011KT 9999 BKN012 BKN020 19/17 Q1007

10-Day Weather Forecast

No radar image for this location.
×

Almanac

Astronomy

Dec. 04, 2016 Rise Set
Actual Time
Civil Twilight
Nautical Twilight
Astronomical Twilight
Moon
Length of Visible Light
Length of Day
Tomorrow will be .
, % of the Moon is Illuminated

Today's Extremes

Country Highs Country Lows

Community

WunderPhotos

Upload Photos

1,955,573 photos uploaded!

WunderBlog® & News

Nearby

Air Quality

  Air Quality AQ Index Pollutant
Not available.

Snow Depth

Station Depth Elevation

Earthquake Activity

City Distance Mag. Time & Date
Minimum magnitude displayed is 2.5.

Coastal Water Temperatures

Place Temperature

Stations

Nearby Weather Stations

Station Location Temp. Windchill Dew Point Humidity Wind Precip. Elev Updated Type